Main page
METAR-TAF:

METAR-TAF

Airports :

Erzurum Airport

Erzurum, Turkey

latitude: 39-55N, longitude: 041-16E, elevation: 1756 m

Current weather observation

The report was made 1 hour and 4 minutes ago, at 08:50 UTC
Wind 7 kt from the East, varying between Northeast and East/Southeast
Temperature 14°C
Humidity 26%
Pressure 1019 hPa
Visibility 10 km or more
no clouds below 1500 m and no cumulonimbus

METAR: LTCE 130850Z 08007KT 040V120 CAVOK 14/M05 Q1019 NOSIG RMK RWY08R 07007KT 030V100 RWY26R 09006KT 030V150 RWY08L VRB06G16KT SKC

Time: 12:54 (09:54 UTC)

Forecast

The report was made 5 hours and 14 minutes ago, at 04:40 UTC
Forecast valid from 13 at 06 UTC to 14 at 06 UTC
Wind 2 kt from variable directions
Visibility 10 km or more
no clouds below 1500 m and no cumulonimbus
Becoming
from 13 at 17 UTC to 13 at 19 UTC
Few clouds at a height of 4000 ft
Broken clouds at a height of 10000 ft

TAF: LTCE 130440Z 1306/1406 VRB02KT CAVOK BECMG 1317/1319 FEW040 BKN100

Weather observations and forecasts of more than 4000 airports (METAR and TAF reports).

The available stations are represented by yellow and red dots on the map.

Hover mouse over dot to see the name of the station.

Then click to see weather observations and forecasts.

To change the map : click on the green buttons with a black cross to zoom in, on the green button with a dash to zoom out, or on the green arrows for adjacent maps.


METAR-TAF: